Time;durP1;ratioP1;P1;durP2;ratioP2;P2;SDS_P1;SDS_P2;PMS_P1;PMS_P2;Temp;Humidity;BMP_temperature;BMP_pressure;BME280_temperature;BME280_humidity;BME280_pressure;Samples;Min_cycle;Max_cycle;Signal;HPM_P1;HPM_P2
2023/01/19 00:00:46;;;;;;;11.18;5.20;;;2.00;99.90;;;;;;5055040;28;20213;-45
2023/01/19 00:03:14;;;;;;;10.40;5.25;;;2.10;99.90;;;;;;5054955;28;20203;-45
2023/01/19 00:05:43;;;;;;;9.38;4.90;;;1.90;99.90;;;;;;5055454;28;20179;-45
2023/01/19 00:08:15;;;;;;;7.30;5.13;;;1.90;99.90;;;;;;5055106;28;20167;-46
2023/01/19 00:10:43;;;;;;;7.57;5.93;;;1.90;99.90;;;;;;5055030;28;20178;-45
2023/01/19 00:13:09;;;;;;;7.30;4.95;;;1.90;99.90;;;;;;5055056;28;20167;-45
2023/01/19 00:15:34;;;;;;;9.40;5.53;;;2.00;99.90;;;;;;5054534;28;20265;-45
2023/01/19 00:18:00;;;;;;;6.50;4.53;;;1.90;99.90;;;;;;5070867;28;20188;-45
2023/01/19 00:20:25;;;;;;;9.15;3.80;;;1.90;99.90;;;;;;5074636;28;20231;-45
2023/01/19 00:22:51;;;;;;;9.65;5.57;;;1.90;99.90;;;;;;5074537;28;20161;-45
2023/01/19 00:25:17;;;;;;;13.32;6.10;;;1.90;99.90;;;;;;5074413;28;20194;-45
2023/01/19 00:27:48;;;;;;;6.63;5.30;;;1.80;99.90;;;;;;5075267;28;20198;-45
2023/01/19 00:30:14;;;;;;;8.45;5.78;;;1.80;99.90;;;;;;5075074;28;20292;-45
2023/01/19 00:32:40;;;;;;;10.95;5.65;;;1.80;99.90;;;;;;5075408;28;20178;-45
2023/01/19 00:35:05;;;;;;;11.20;6.07;;;1.90;99.90;;;;;;5075056;28;20223;-46
2023/01/19 00:37:31;;;;;;;11.70;5.15;;;1.80;99.90;;;;;;5074650;28;20206;-45
2023/01/19 00:39:57;;;;;;;11.88;5.97;;;1.70;99.90;;;;;;5074754;28;20244;-45
2023/01/19 00:45:19;;;;;;;9.82;5.47;;;1.80;99.90;;;;;;5061440;28;20205;-45
2023/01/19 00:47:47;;;;;;;12.40;5.28;;;1.80;99.90;;;;;;5056851;28;20174;-45
2023/01/19 00:50:16;;;;;;;11.63;6.32;;;1.90;99.90;;;;;;5074846;28;20253;-45
2023/01/19 00:52:43;;;;;;;8.68;5.75;;;1.90;99.90;;;;;;5074834;28;20166;-45
2023/01/19 00:55:10;;;;;;;8.43;5.75;;;1.90;99.90;;;;;;5074903;28;20162;-45
2023/01/19 00:57:39;;;;;;;17.10;9.50;;;1.80;99.90;;;;;;5074445;28;20174;-45
2023/01/19 01:00:10;;;;;;;9.40;5.95;;;1.80;99.90;;;;;;5074202;28;20696;-45
2023/01/19 01:02:37;;;;;;;9.98;5.10;;;1.80;99.90;;;;;;5074487;28;20170;-45
2023/01/19 01:05:04;;;;;;;11.55;5.75;;;1.80;99.90;;;;;;5074004;28;20255;-45
2023/01/19 01:07:33;;;;;;;9.30;6.07;;;1.80;99.90;;;;;;5054495;28;20186;-45
2023/01/19 01:10:00;;;;;;;11.52;5.97;;;1.80;99.90;;;;;;5054124;28;20282;-45
2023/01/19 01:12:26;;;;;;;8.55;5.25;;;1.80;99.90;;;;;;5054091;28;20194;-45
2023/01/19 01:14:51;;;;;;;8.63;5.38;;;1.70;99.90;;;;;;5055115;28;20261;-45
2023/01/19 01:17:23;;;;;;;12.90;6.85;;;1.80;99.90;;;;;;5053953;28;20277;-45
2023/01/19 01:19:50;;;;;;;9.15;5.18;;;1.80;99.90;;;;;;5053914;28;20170;-45
2023/01/19 01:22:15;;;;;;;8.80;5.28;;;1.70;99.90;;;;;;5054185;28;20175;-45
2023/01/19 01:24:41;;;;;;;10.63;5.25;;;1.80;99.90;;;;;;5054186;28;20228;-44
2023/01/19 01:27:06;;;;;;;6.15;4.55;;;1.80;99.90;;;;;;5053980;28;20179;-45
2023/01/19 01:29:34;;;;;;;11.80;5.07;;;1.80;99.90;;;;;;5054054;28;20258;-45
2023/01/19 01:32:00;;;;;;;10.07;5.82;;;1.90;99.90;;;;;;5054017;28;20171;-45
2023/01/19 01:34:26;;;;;;;6.15;4.35;;;1.90;99.90;;;;;;5053684;28;20627;-45
2023/01/19 01:36:51;;;;;;;10.50;4.30;;;1.80;99.90;;;;;;5067236;28;20221;-45
2023/01/19 01:39:17;;;;;;;7.57;4.38;;;1.90;99.90;;;;;;5073308;28;20177;-45
2023/01/19 01:41:42;;;;;;;6.28;3.95;;;2.00;99.90;;;;;;5073982;28;20641;-45
2023/01/19 01:44:48;;;;;;;10.43;5.40;;;2.00;99.90;;;;;;5074101;28;20162;-45
2023/01/19 01:47:32;;;;;;;7.00;4.53;;;1.90;99.90;;;;;;5073689;28;20173;-45
2023/01/19 01:50:31;;;;;;;6.65;4.75;;;1.80;99.90;;;;;;5073705;28;20166;-45
2023/01/19 01:53:03;;;;;;;5.82;4.22;;;1.90;99.90;;;;;;5040491;28;20211;-45
2023/01/19 01:55:31;;;;;;;7.30;5.30;;;1.80;99.90;;;;;;5073191;28;20201;-45
2023/01/19 01:58:03;;;;;;;6.60;4.15;;;2.00;99.90;;;;;;5073235;28;20327;-45
2023/01/19 02:02:49;;;;;;;6.53;5.18;;;2.00;99.90;;;;;;5073445;28;20170;-45
2023/01/19 02:03:18;;;;;;;7.93;5.93;;;1.90;99.90;;;;;;5072835;28;20237;-45
2023/01/19 02:05:45;;;;;;;7.03;4.75;;;1.90;99.90;;;;;;5068406;28;20183;-45
2023/01/19 02:13:48;;;;;;;8.68;5.18;;;1.90;99.90;;;;;;5054633;28;20174;-45
2023/01/19 02:16:15;;;;;;;8.02;4.13;;;1.80;99.90;;;;;;5071844;28;20201;-45
2023/01/19 02:18:42;;;;;;;8.10;5.18;;;1.90;99.90;;;;;;5073155;28;20166;-45
2023/01/19 02:21:27;;;;;;;9.10;4.85;;;1.80;99.90;;;;;;5072752;28;20657;-45
2023/01/19 02:23:55;;;;;;;5.82;3.80;;;1.80;99.90;;;;;;5072739;28;20533;-45
2023/01/19 02:26:30;;;;;;;7.32;4.25;;;1.90;99.90;;;;;;5072689;28;20162;-45
2023/01/19 02:28:58;;;;;;;7.07;4.47;;;1.90;99.90;;;;;;5072567;28;20661;-45
2023/01/19 02:31:24;;;;;;;8.48;5.88;;;1.80;99.90;;;;;;5072806;28;20181;-49
2023/01/19 02:33:51;;;;;;;7.85;4.68;;;1.80;99.90;;;;;;5072531;28;20644;-45
2023/01/19 02:36:23;;;;;;;5.43;4.45;;;1.80;99.90;;;;;;5071430;28;20194;-45
2023/01/19 02:38:52;;;;;;;8.98;5.20;;;1.90;99.90;;;;;;5072705;28;20231;-45
2023/01/19 02:41:21;;;;;;;9.88;5.18;;;1.90;99.90;;;;;;5072332;28;20162;-45
2023/01/19 02:43:48;;;;;;;9.35;5.18;;;1.90;99.90;;;;;;5072666;28;20515;-46
2023/01/19 02:46:14;;;;;;;9.50;5.63;;;1.90;99.90;;;;;;5072315;28;20588;-45
2023/01/19 02:48:40;;;;;;;7.90;4.68;;;1.90;99.90;;;;;;5072592;28;20272;-46
2023/01/19 02:51:21;;;;;;;14.63;4.38;;;1.80;99.90;;;;;;5072317;28;20648;-47
2023/01/19 02:53:53;;;;;;;6.60;4.90;;;1.90;99.90;;;;;;5072290;28;20162;-47
2023/01/19 02:56:40;;;;;;;7.80;4.97;;;1.90;99.90;;;;;;5070261;28;20670;-46
2023/01/19 02:59:28;;;;;;;4.82;3.50;;;1.90;99.90;;;;;;5072071;28;20170;-47
2023/01/19 03:02:18;;;;;;;10.75;4.75;;;1.90;99.90;;;;;;5072327;28;20182;-46
2023/01/19 03:04:52;;;;;;;4.72;3.80;;;2.00;99.90;;;;;;5071839;28;20214;-47
2023/01/19 03:07:32;;;;;;;17.15;5.47;;;1.90;99.90;;;;;;5072009;28;20184;-46
2023/01/19 03:10:06;;;;;;;9.85;5.10;;;1.90;99.90;;;;;;5072043;28;20219;-46
2023/01/19 03:12:50;;;;;;;7.68;4.50;;;1.90;99.90;;;;;;5072078;28;20166;-46
2023/01/19 03:15:29;;;;;;;8.07;5.03;;;1.90;99.90;;;;;;5071870;28;20197;-48
2023/01/19 03:17:58;;;;;;;9.75;5.47;;;1.90;99.90;;;;;;5053174;28;20746;-47
2023/01/19 03:20:27;;;;;;;8.90;4.78;;;1.80;99.90;;;;;;5051845;28;20646;-46
2023/01/19 03:22:59;;;;;;;11.70;5.28;;;1.90;99.90;;;;;;5051143;28;20174;-46
2023/01/19 03:25:26;;;;;;;10.35;5.25;;;1.90;99.90;;;;;;5051725;28;20205;-45
2023/01/19 03:27:55;;;;;;;8.90;5.40;;;1.90;99.90;;;;;;5052024;28;20535;-46
2023/01/19 03:30:25;;;;;;;8.93;4.70;;;1.90;99.90;;;;;;5051698;28;20171;-46
2023/01/19 03:32:55;;;;;;;7.25;5.05;;;1.90;99.90;;;;;;5051662;28;20664;-46
2023/01/19 03:35:22;;;;;;;9.82;5.60;;;1.90;99.90;;;;;;5051506;28;20170;-47
2023/01/19 03:37:51;;;;;;;5.57;3.88;;;1.90;99.90;;;;;;5051845;28;20280;-47
2023/01/19 03:40:17;;;;;;;11.80;5.90;;;1.90;99.90;;;;;;5051826;28;20166;-46
2023/01/19 03:42:43;;;;;;;7.82;4.60;;;1.90;99.90;;;;;;5051514;28;20705;-46
2023/01/19 03:45:11;;;;;;;10.50;5.10;;;2.00;99.90;;;;;;5051929;28;20162;-47
2023/01/19 03:47:37;;;;;;;9.23;4.38;;;2.00;99.90;;;;;;5051562;28;20162;-45
2023/01/19 03:50:07;;;;;;;7.82;4.85;;;1.90;99.90;;;;;;5051463;28;20304;-45
2023/01/19 03:52:33;;;;;;;9.57;4.95;;;2.00;99.90;;;;;;5051407;28;20300;-45
2023/01/19 03:55:00;;;;;;;10.15;4.70;;;2.00;99.90;;;;;;5051405;28;20250;-45
2023/01/19 03:57:26;;;;;;;6.63;3.25;;;2.10;99.90;;;;;;5069843;28;20220;-45
2023/01/19 03:59:52;;;;;;;6.13;4.50;;;2.00;99.90;;;;;;5071472;28;20166;-45
2023/01/19 04:02:18;;;;;;;7.25;5.03;;;2.00;99.90;;;;;;5071672;28;20170;-45
2023/01/19 04:04:43;;;;;;;6.38;3.55;;;2.10;99.90;;;;;;5070884;28;20224;-45
2023/01/19 04:07:10;;;;;;;5.35;4.07;;;2.10;99.90;;;;;;5071993;28;20166;-45
2023/01/19 04:09:36;;;;;;;7.10;4.30;;;2.10;99.90;;;;;;5071337;28;20169;-45
2023/01/19 04:12:02;;;;;;;9.57;4.95;;;2.10;99.90;;;;;;5071292;28;20174;-45
2023/01/19 04:14:28;;;;;;;11.32;5.18;;;2.10;99.90;;;;;;5071528;28;20224;-44
2023/01/19 04:16:53;;;;;;;6.03;4.45;;;2.20;99.90;;;;;;5054530;28;20214;-45
2023/01/19 04:19:19;;;;;;;9.10;5.25;;;2.10;99.90;;;;;;5051199;28;20170;-45
2023/01/19 04:21:47;;;;;;;11.20;4.38;;;2.10;99.90;;;;;;5051198;28;20181;-45
2023/01/19 04:24:12;;;;;;;10.43;5.07;;;2.20;99.90;;;;;;5051332;28;20530;-45
2023/01/19 04:26:38;;;;;;;10.57;4.50;;;2.20;99.90;;;;;;5051813;28;20174;-45
2023/01/19 04:29:04;;;;;;;8.35;3.80;;;2.30;99.90;;;;;;5051132;28;20167;-45
2023/01/19 04:31:30;;;;;;;6.80;4.38;;;2.20;99.90;;;;;;5051137;28;20178;-45
2023/01/19 04:33:56;;;;;;;7.13;4.60;;;2.20;99.90;;;;;;5052445;28;20202;-44
2023/01/19 04:36:21;;;;;;;8.63;4.00;;;2.20;99.90;;;;;;5068386;28;20645;-45
2023/01/19 04:38:47;;;;;;;8.65;4.05;;;2.20;99.90;;;;;;5074720;28;20175;-45
2023/01/19 04:41:13;;;;;;;10.73;4.57;;;2.20;99.90;;;;;;5074617;28;20216;-45
2023/01/19 04:43:39;;;;;;;8.63;4.78;;;2.20;99.90;;;;;;5074933;28;20543;-45
2023/01/19 04:46:05;;;;;;;7.03;5.07;;;2.20;99.90;;;;;;5074533;28;20304;-45
2023/01/19 04:48:31;;;;;;;7.05;3.85;;;2.40;99.90;;;;;;5074475;28;20677;-45
2023/01/19 04:50:56;;;;;;;10.88;4.60;;;2.30;99.90;;;;;;5074447;28;20165;-45
2023/01/19 04:53:22;;;;;;;9.77;4.43;;;2.30;99.90;;;;;;5074399;28;20174;-45
2023/01/19 04:55:52;;;;;;;9.25;5.43;;;2.30;99.90;;;;;;5062461;28;20195;-45
2023/01/19 04:58:18;;;;;;;10.35;4.57;;;2.40;99.90;;;;;;5058072;28;20712;-45
2023/01/19 05:00:43;;;;;;;9.43;4.95;;;2.30;99.90;;;;;;5053948;28;20253;-45
2023/01/19 05:03:09;;;;;;;7.82;4.40;;;2.30;99.90;;;;;;5054233;28;20253;-45
2023/01/19 05:05:34;;;;;;;18.48;4.68;;;2.40;99.90;;;;;;5053586;28;20626;-45
2023/01/19 05:08:00;;;;;;;12.55;6.05;;;2.30;99.90;;;;;;5053785;28;20623;-45
2023/01/19 05:10:25;;;;;;;10.18;5.35;;;2.30;99.90;;;;;;5053772;28;20194;-45
2023/01/19 05:12:51;;;;;;;7.95;4.68;;;2.30;99.90;;;;;;5053410;28;20638;-45
2023/01/19 05:15:17;;;;;;;7.28;4.63;;;2.30;99.90;;;;;;5062446;28;20189;-45
2023/01/19 05:17:43;;;;;;;11.73;5.97;;;2.30;99.90;;;;;;5073334;28;20202;-45
2023/01/19 05:20:10;;;;;;;15.68;7.30;;;2.20;99.90;;;;;;5074097;28;20166;-45
2023/01/19 05:22:37;;;;;;;9.32;5.47;;;2.20;99.90;;;;;;5073268;28;20645;-45
2023/01/19 05:25:03;;;;;;;7.30;5.13;;;2.10;99.90;;;;;;5072134;28;20514;-45
2023/01/19 05:27:28;;;;;;;10.93;5.78;;;2.00;99.90;;;;;;5071568;28;20170;-45
2023/01/19 05:29:54;;;;;;;14.60;6.88;;;2.00;99.90;;;;;;5072777;28;20173;-46
2023/01/19 05:32:19;;;;;;;7.68;4.55;;;2.00;99.90;;;;;;5072921;28;20158;-45
2023/01/19 05:34:45;;;;;;;12.68;6.25;;;1.80;99.90;;;;;;5073107;28;20184;-45
2023/01/19 05:37:11;;;;;;;14.43;7.03;;;1.80;99.90;;;;;;5056236;28;20293;-45
2023/01/19 05:39:37;;;;;;;11.15;6.03;;;1.90;99.90;;;;;;5052926;28;20167;-45
2023/01/19 05:42:02;;;;;;;13.70;7.03;;;1.80;99.90;;;;;;5053083;28;20181;-45
2023/01/19 05:44:28;;;;;;;15.68;6.90;;;1.70;99.90;;;;;;5052972;28;20163;-45
2023/01/19 05:46:54;;;;;;;10.50;7.03;;;1.60;99.90;;;;;;5065454;28;20174;-45
2023/01/19 05:49:19;;;;;;;10.13;5.13;;;1.70;99.90;;;;;;5062086;28;20533;-45
2023/01/19 05:51:45;;;;;;;9.27;6.13;;;1.60;99.90;;;;;;5065226;28;20648;-45
2023/01/19 05:54:13;;;;;;;12.57;7.30;;;1.70;99.90;;;;;;5073128;28;20170;-45
2023/01/19 05:56:39;;;;;;;11.80;6.45;;;0.50;99.90;;;;;;5069029;28;20214;-45
2023/01/19 05:59:05;;;;;;;13.25;6.38;;;1.50;99.90;;;;;;5053103;28;20166;-45
2023/01/19 06:01:30;;;;;;;11.13;6.20;;;1.60;99.90;;;;;;5052604;28;20528;-45
2023/01/19 06:03:56;;;;;;;9.88;5.97;;;1.60;99.90;;;;;;5052386;28;20785;-45
2023/01/19 06:06:22;;;;;;;11.82;6.75;;;1.50;99.90;;;;;;5052426;28;20212;-45
2023/01/19 06:08:47;;;;;;;10.73;6.45;;;1.60;99.90;;;;;;5057806;28;20277;-44
2023/01/19 06:11:13;;;;;;;10.75;6.72;;;1.60;99.90;;;;;;5063578;28;20254;-45
2023/01/19 06:13:39;;;;;;;8.23;4.40;;;1.50;99.90;;;;;;5066093;28;20532;-45
2023/01/19 06:16:05;;;;;;;7.82;5.40;;;1.60;99.90;;;;;;5052550;28;20697;-45
2023/01/19 06:18:30;;;;;;;10.60;6.70;;;1.50;99.90;;;;;;5052246;28;20264;-45
2023/01/19 06:20:59;;;;;;;9.93;5.95;;;1.50;99.90;;;;;;5052205;28;20209;-45
2023/01/19 06:23:25;;;;;;;9.35;5.88;;;1.40;99.90;;;;;;5052300;28;20178;-45
2023/01/19 06:25:51;;;;;;;9.50;5.20;;;1.50;99.90;;;;;;5052207;28;20174;-45
2023/01/19 06:28:17;;;;;;;9.77;5.60;;;1.40;99.90;;;;;;5064595;28;20177;-45
2023/01/19 06:30:48;;;;;;;12.35;7.30;;;1.40;99.90;;;;;;5071344;28;20173;-45
2023/01/19 06:33:14;;;;;;;11.57;5.22;;;1.50;99.90;;;;;;5071927;28;20174;-45
2023/01/19 06:35:45;;;;;;;8.57;5.55;;;1.40;99.90;;;;;;5072319;28;20170;-45
2023/01/19 06:38:12;;;;;;;9.50;5.85;;;1.40;99.90;;;;;;5072252;28;20176;-44
2023/01/19 06:40:39;;;;;;;12.75;7.55;;;1.60;99.90;;;;;;5072311;28;20174;-45
2023/01/19 06:43:05;;;;;;;9.18;5.25;;;1.40;99.90;;;;;;5072174;28;20184;-45
2023/01/19 06:45:30;;;;;;;13.13;7.97;;;1.40;99.90;;;;;;5072041;28;20170;-45
2023/01/19 06:47:56;;;;;;;9.68;5.93;;;;;;;;;;5071703;28;20170;-46
2023/01/19 06:50:22;;;;;;;13.88;8.55;;;1.60;99.90;;;;;;5067796;28;20198;-45
2023/01/19 06:52:50;;;;;;;11.10;6.95;;;1.60;99.90;;;;;;5051549;28;20174;-46
2023/01/19 06:55:16;;;;;;;15.05;8.02;;;1.50;99.90;;;;;;5051612;28;20167;-46
2023/01/19 06:57:43;;;;;;;15.13;7.95;;;1.40;99.90;;;;;;5051238;28;20700;-45
2023/01/19 07:00:10;;;;;;;14.93;8.27;;;2.70;99.90;;;;;;5052075;28;20197;-45
2023/01/19 07:02:37;;;;;;;11.52;7.93;;;1.40;99.90;;;;;;5051400;28;20664;-45
2023/01/19 07:05:05;;;;;;;12.80;7.10;;;1.60;99.90;;;;;;5051085;28;20222;-45
2023/01/19 07:07:31;;;;;;;10.20;6.18;;;1.60;99.90;;;;;;5051671;28;20178;-45
2023/01/19 07:09:57;;;;;;;12.57;7.20;;;1.60;99.90;;;;;;5051480;28;20219;-45
2023/01/19 07:12:23;;;;;;;8.55;5.82;;;1.60;99.90;;;;;;5050084;28;20174;-45
2023/01/19 07:14:48;;;;;;;14.82;8.23;;;1.60;99.90;;;;;;5051308;28;20185;-45
2023/01/19 07:17:14;;;;;;;10.57;7.13;;;1.50;99.90;;;;;;5051279;28;20674;-45
2023/01/19 07:19:40;;;;;;;17.40;9.43;;;1.60;99.90;;;;;;5051834;28;20167;-45
2023/01/19 07:22:05;;;;;;;13.00;7.97;;;1.40;99.90;;;;;;5068557;28;20184;-45
2023/01/19 07:24:32;;;;;;;13.43;7.47;;;1.60;99.90;;;;;;5071258;28;20220;-45
2023/01/19 07:26:58;;;;;;;12.80;7.35;;;1.60;99.90;;;;;;5071076;28;20170;-45
2023/01/19 07:29:24;;;;;;;10.00;6.03;;;1.70;99.90;;;;;;5071049;28;20204;-45
2023/01/19 07:31:50;;;;;;;19.10;9.27;;;1.60;99.90;;;;;;5071126;28;20198;-45
2023/01/19 07:34:15;;;;;;;15.30;9.50;;;1.60;99.90;;;;;;5070952;28;20649;-45
2023/01/19 07:36:41;;;;;;;11.13;7.32;;;1.50;99.90;;;;;;5071294;28;20258;-46
2023/01/19 07:39:06;;;;;;;12.43;7.38;;;3.70;99.90;;;;;;5071078;28;20169;-45
2023/01/19 07:41:32;;;;;;;13.65;8.70;;;1.50;99.90;;;;;;5071096;28;20174;-45
2023/01/19 07:43:57;;;;;;;14.38;7.38;;;1.80;99.90;;;;;;5071006;28;20163;-45
2023/01/19 07:46:23;;;;;;;12.05;7.30;;;1.70;99.90;;;;;;5071151;28;20166;-45
2023/01/19 07:48:49;;;;;;;13.57;7.45;;;1.60;99.90;;;;;;5071206;28;20170;-45
2023/01/19 07:51:17;;;;;;;13.60;8.18;;;1.60;99.90;;;;;;5060673;28;20169;-45
2023/01/19 07:53:44;;;;;;;16.02;7.53;;;1.60;99.90;;;;;;5049522;28;20182;-45
2023/01/19 07:56:10;;;;;;;7.90;5.28;;;1.80;99.90;;;;;;5051222;28;20247;-46
2023/01/19 07:58:35;;;;;;;10.20;5.97;;;1.70;99.90;;;;;;5051139;28;20258;-45
2023/01/19 08:01:09;;;;;;;14.30;7.45;;;1.80;99.90;;;;;;5050970;28;20737;-45
2023/01/19 08:03:34;;;;;;;11.55;5.97;;;1.90;99.90;;;;;;5050659;28;20217;-45
2023/01/19 08:06:01;;;;;;;12.43;7.20;;;1.70;99.90;;;;;;5051223;28;20186;-45
2023/01/19 08:08:28;;;;;;;10.00;5.95;;;1.70;99.90;;;;;;5051222;28;20504;-45
2023/01/19 08:10:54;;;;;;;6.35;4.47;;;1.90;99.90;;;;;;5054808;28;20170;-45
2023/01/19 08:13:19;;;;;;;13.48;8.25;;;1.80;99.90;;;;;;5054625;28;20169;-45
2023/01/19 08:15:49;;;;;;;12.10;8.00;;;1.80;99.90;;;;;;5054640;28;20646;-45
2023/01/19 08:18:14;;;;;;;17.55;8.55;;;1.80;99.90;;;;;;5053316;28;20171;-45
2023/01/19 08:20:40;;;;;;;11.82;6.68;;;2.00;99.90;;;;;;5062635;28;20189;-45
2023/01/19 08:23:06;;;;;;;9.43;5.70;;;1.80;99.90;;;;;;5074463;28;20291;-45
2023/01/19 08:25:36;;;;;;;12.70;7.40;;;2.00;99.90;;;;;;5073406;28;20178;-45
2023/01/19 08:28:04;;;;;;;10.05;6.95;;;1.80;99.90;;;;;;5074415;28;20705;-45
2023/01/19 08:30:30;;;;;;;12.18;7.57;;;1.90;99.90;;;;;;5074278;28;20172;-45
2023/01/19 08:33:02;;;;;;;13.35;8.68;;;1.90;99.90;;;;;;5074441;28;20170;-45
2023/01/19 08:35:30;;;;;;;11.25;7.47;;;2.10;99.90;;;;;;5073038;28;20166;-45
2023/01/19 08:37:59;;;;;;;15.18;8.70;;;2.10;99.90;;;;;;5074159;28;20170;-45
2023/01/19 08:40:26;;;;;;;10.80;6.47;;;2.00;99.90;;;;;;5074595;28;20178;-45
2023/01/19 08:42:51;;;;;;;10.45;8.07;;;2.10;99.90;;;;;;5074160;28;20170;-45
2023/01/19 08:45:17;;;;;;;11.90;6.30;;;2.20;99.90;;;;;;5074152;28;20216;-45
2023/01/19 08:47:42;;;;;;;17.70;9.50;;;2.00;99.90;;;;;;5074092;28;20212;-45
2023/01/19 08:50:09;;;;;;;14.25;8.95;;;2.20;99.90;;;;;;5073640;28;20170;-45
2023/01/19 08:52:35;;;;;;;18.30;10.32;;;2.20;99.90;;;;;;5073814;28;20435;-45
2023/01/19 08:55:00;;;;;;;18.77;10.55;;;2.30;99.90;;;;;;5074295;28;20162;-45
2023/01/19 08:57:26;;;;;;;17.60;10.63;;;2.10;99.90;;;;;;5073764;28;20205;-45
2023/01/19 08:59:52;;;;;;;19.10;9.52;;;2.30;99.90;;;;;;5073679;28;20182;-45
2023/01/19 09:02:17;;;;;;;14.35;8.95;;;2.30;99.90;;;;;;5074002;28;20300;-46
2023/01/19 09:04:43;;;;;;;18.27;10.98;;;2.30;99.90;;;;;;5073651;28;20243;-45
2023/01/19 09:07:08;;;;;;;19.05;11.30;;;2.40;99.90;;;;;;5074108;28;20201;-45
2023/01/19 09:09:36;;;;;;;22.27;12.43;;;2.40;99.90;;;;;;5073755;28;20170;-45
2023/01/19 09:12:02;;;;;;;11.05;7.00;;;2.30;99.90;;;;;;5073635;28;20166;-45
2023/01/19 09:14:27;;;;;;;14.00;7.97;;;2.30;99.90;;;;;;5073590;28;20170;-45
2023/01/19 09:16:55;;;;;;;15.82;8.60;;;2.30;99.90;;;;;;5073671;28;20212;-45
2023/01/19 09:19:20;;;;;;;17.40;11.10;;;2.40;99.90;;;;;;5073785;28;20174;-45
2023/01/19 09:21:46;;;;;;;16.00;9.30;;;2.50;99.90;;;;;;5066905;28;20551;-45
2023/01/19 09:24:11;;;;;;;20.48;11.23;;;2.40;99.90;;;;;;5073063;28;20189;-45
2023/01/19 09:26:39;;;;;;;22.38;10.90;;;2.30;99.90;;;;;;5073958;28;20165;-45
2023/01/19 09:29:04;;;;;;;20.77;10.95;;;2.40;99.90;;;;;;5073319;28;20572;-45
2023/01/19 09:31:30;;;;;;;21.88;11.40;;;2.60;99.90;;;;;;5073176;28;20166;-45
2023/01/19 09:33:56;;;;;;;18.42;10.60;;;2.50;99.90;;;;;;5073253;28;20162;-45
2023/01/19 09:36:21;;;;;;;20.77;10.48;;;2.40;99.90;;;;;;5073180;28;20258;-45
2023/01/19 09:38:47;;;;;;;27.13;12.15;;;2.20;99.90;;;;;;5073424;28;20166;-45
2023/01/19 09:41:20;;;;;;;25.52;12.02;;;2.00;99.90;;;;;;5059086;28;20182;-45
2023/01/19 09:44:04;;;;;;;18.13;10.95;;;2.20;99.90;;;;;;5053045;28;20623;-44
2023/01/19 09:46:37;;;;;;;19.02;11.05;;;2.00;99.90;;;;;;5053044;28;20173;-45
2023/01/19 09:49:14;;;;;;;17.98;10.68;;;2.30;99.90;;;;;;5053281;28;20170;-45
2023/01/19 09:51:44;;;;;;;17.52;8.68;;;2.10;99.90;;;;;;5053639;28;20519;-45
2023/01/19 09:54:20;;;;;;;24.63;12.85;;;2.20;99.90;;;;;;5053278;28;20167;-46
2023/01/19 09:56:48;;;;;;;22.23;12.95;;;2.30;99.90;;;;;;5052808;28;20215;-45
2023/01/19 09:59:16;;;;;;;24.98;13.13;;;2.40;99.90;;;;;;5053048;28;20175;-45
2023/01/19 10:02:17;;;;;;;31.98;12.88;;;2.30;99.90;;;;;;5072510;28;20545;-45
2023/01/19 10:04:51;;;;;;;17.95;9.82;;;2.50;99.90;;;;;;5072532;28;20245;-45
2023/01/19 10:07:47;;;;;;;15.40;10.25;;;2.40;99.90;;;;;;5072533;28;20176;-45
2023/01/19 10:10:24;;;;;;;28.40;11.52;;;2.40;99.90;;;;;;5072877;28;20173;-45
2023/01/19 10:13:12;;;;;;;19.83;10.95;;;2.60;99.90;;;;;;5072502;28;20192;-45
2023/01/19 10:15:52;;;;;;;21.42;11.32;;;2.40;99.90;;;;;;5072689;28;20676;-45
2023/01/19 10:18:31;;;;;;;30.15;12.50;;;2.50;99.90;;;;;;5072332;28;20641;-45
2023/01/19 10:21:11;;;;;;;23.67;12.65;;;2.70;99.90;;;;;;5055843;28;20294;-45
2023/01/19 10:23:45;;;;;;;24.02;12.35;;;2.70;99.90;;;;;;5052844;28;20224;-45
2023/01/19 10:26:20;;;;;;;31.00;15.30;;;2.60;99.90;;;;;;5052382;28;20178;-45
2023/01/19 10:28:48;;;;;;;27.85;14.77;;;2.70;99.90;;;;;;5052223;28;20166;-45
2023/01/19 10:31:17;;;;;;;24.70;11.68;;;2.60;99.90;;;;;;5051776;28;20622;-45
2023/01/19 10:33:43;;;;;;;28.75;12.80;;;2.80;99.90;;;;;;5052197;28;20163;-45
2023/01/19 10:36:17;;;;;;;26.67;12.18;;;2.90;99.90;;;;;;5052268;28;20194;-45
2023/01/19 10:38:43;;;;;;;21.10;12.15;;;2.70;99.90;;;;;;5052036;28;20533;-45
2023/01/19 10:41:29;;;;;;;23.90;11.10;;;2.80;99.90;;;;;;5071996;28;20170;-45
2023/01/19 10:44:03;;;;;;;22.90;10.48;;;2.90;99.90;;;;;;5071804;28;20207;-45
2023/01/19 10:46:41;;;;;;;25.08;11.18;;;2.90;99.90;;;;;;5072049;28;20169;-45
2023/01/19 10:49:23;;;;;;;29.23;11.00;;;3.00;99.90;;;;;;5072157;28;20166;-45
2023/01/19 10:51:49;;;;;;;22.27;12.02;;;3.10;99.90;;;;;;5071725;28;20513;-45
2023/01/19 10:54:15;;;;;;;25.27;10.93;;;3.20;99.90;;;;;;5071718;28;20249;-45
2023/01/19 10:56:42;;;;;;;25.77;10.93;;;3.10;99.90;;;;;;5071850;28;20214;-45
2023/01/19 10:59:32;;;;;;;16.00;9.40;;;3.20;99.90;;;;;;5066750;28;20199;-45
2023/01/19 11:02:25;;;;;;;24.17;10.60;;;3.20;99.90;;;;;;5051633;28;20699;-45
2023/01/19 11:04:52;;;;;;;26.90;11.10;;;3.30;99.90;;;;;;5051429;28;20256;-45
2023/01/19 11:07:26;;;;;;;19.45;11.07;;;3.40;99.90;;;;;;5051848;28;20174;-45
2023/01/19 11:10:14;;;;;;;17.23;9.98;;;3.70;99.90;;;;;;5051425;28;20212;-45
2023/01/19 11:13:06;;;;;;;31.17;15.00;;;3.80;99.90;;;;;;5051774;28;20166;-45
2023/01/19 11:15:48;;;;;;;22.63;13.50;;;3.80;99.90;;;;;;5051225;28;20170;-45
2023/01/19 11:18:25;;;;;;;20.00;10.85;;;3.90;99.90;;;;;;5051427;28;20187;-45
2023/01/19 11:20:53;;;;;;;17.75;10.80;;;3.80;99.90;;;;;;5051436;28;20166;-45
2023/01/19 11:23:24;;;;;;;20.77;11.02;;;3.90;99.90;;;;;;5051391;28;20167;-45
2023/01/19 11:25:51;;;;;;;19.75;9.38;;;3.80;99.90;;;;;;5051322;28;20208;-45
2023/01/19 11:28:47;;;;;;;18.40;10.77;;;3.70;99.90;;;;;;5051472;28;20178;-43
2023/01/19 11:31:12;;;;;;;14.55;8.70;;;3.70;99.90;;;;;;5047544;28;20204;-45
2023/01/19 11:33:48;;;;;;;23.85;12.45;;;3.80;99.90;;;;;;5051513;28;20626;-45
2023/01/19 11:36:17;;;;;;;22.67;10.68;;;3.90;99.90;;;;;;5051361;28;20617;-44
2023/01/19 11:38:45;;;;;;;21.80;10.48;;;3.80;99.90;;;;;;5051084;28;20241;-44
2023/01/19 11:41:36;;;;;;;20.63;10.23;;;3.90;99.90;;;;;;5051005;28;20639;-45
2023/01/19 11:44:23;;;;;;;17.15;10.23;;;3.80;99.90;;;;;;5050460;28;20171;-45
2023/01/19 11:46:55;;;;;;;21.48;9.95;;;3.90;99.90;;;;;;5050988;28;20170;-44
2023/01/19 11:49:42;;;;;;;18.00;10.38;;;4.10;99.90;;;;;;5050905;28;20254;-44
2023/01/19 11:52:20;;;;;;;20.73;9.90;;;4.20;99.90;;;;;;5051267;28;20635;-44
2023/01/19 11:54:55;;;;;;;17.40;8.48;;;4.20;99.90;;;;;;5050906;28;20166;-45
2023/01/19 11:57:21;;;;;;;17.63;9.38;;;4.20;99.90;;;;;;5050802;28;20670;-44
2023/01/19 11:59:47;;;;;;;15.07;8.00;;;4.20;99.90;;;;;;5063280;28;20173;-45
2023/01/19 12:02:16;;;;;;;18.98;9.38;;;4.00;99.90;;;;;;5070933;28;20184;-45
2023/01/19 12:04:43;;;;;;;16.55;9.93;;;4.10;99.90;;;;;;5070780;28;20217;-45
2023/01/19 12:07:11;;;;;;;23.70;11.23;;;4.00;99.90;;;;;;5070886;28;20588;-45
2023/01/19 12:09:43;;;;;;;23.38;10.50;;;4.00;99.90;;;;;;5071552;28;20200;-45
2023/01/19 12:12:28;;;;;;;12.27;7.40;;;4.10;99.90;;;;;;5071159;28;20169;-45
2023/01/19 12:15:25;;;;;;;20.80;10.15;;;4.10;99.90;;;;;;5068563;28;20571;-45
2023/01/19 12:17:54;;;;;;;15.50;9.32;;;3.90;99.90;;;;;;5069263;28;20208;-45
2023/01/19 12:20:37;;;;;;;19.20;9.20;;;3.90;99.90;;;;;;5069110;28;20162;-45
2023/01/19 12:23:10;;;;;;;21.65;9.57;;;3.90;99.90;;;;;;5049325;28;20571;-45
2023/01/19 12:26:20;;;;;;;23.45;11.88;;;3.90;99.90;;;;;;5049574;28;20174;-44
2023/01/19 12:28:49;;;;;;;19.05;9.88;;;4.10;99.90;;;;;;5053112;28;20252;-47
2023/01/19 12:31:21;;;;;;;18.92;9.20;;;4.10;99.90;;;;;;5060250;28;20175;-46
2023/01/19 12:33:48;;;;;;;20.33;8.70;;;4.20;99.90;;;;;;5049094;28;20638;-46
2023/01/19 12:36:42;;;;;;;11.80;7.15;;;4.20;99.90;;;;;;5049037;28;20587;-46
2023/01/19 12:39:21;;;;;;;20.85;10.65;;;4.10;99.90;;;;;;5046250;28;20178;-46
2023/01/19 12:41:47;;;;;;;22.15;9.52;;;4.00;99.90;;;;;;5049042;28;20653;-45
2023/01/19 12:44:18;;;;;;;17.35;8.93;;;4.10;99.90;;;;;;5048952;28;20630;-46
2023/01/19 12:46:48;;;;;;;25.75;10.23;;;3.90;99.90;;;;;;5048966;28;20166;-46
2023/01/19 12:49:37;;;;;;;22.42;10.23;;;3.90;99.90;;;;;;5049049;28;20170;-46
2023/01/19 12:52:33;;;;;;;22.10;8.93;;;3.90;99.90;;;;;;5049134;28;20197;-46
2023/01/19 12:55:13;;;;;;;21.10;9.48;;;3.90;99.90;;;;;;5028434;28;20968;-46
2023/01/19 12:57:56;;;;;;;36.63;8.55;;;4.00;99.90;;;;;;5052751;28;20198;-46
2023/01/19 13:00:22;;;;;;;15.75;8.10;;;3.90;99.90;;;;;;5069406;28;20193;-46
2023/01/19 13:02:55;;;;;;;14.38;6.88;;;3.70;99.90;;;;;;5072155;28;20198;-45
2023/01/19 13:05:24;;;;;;;17.13;8.85;;;3.70;99.90;;;;;;5072190;28;20178;-46
2023/01/19 13:08:01;;;;;;;15.23;8.18;;;3.80;99.90;;;;;;5071902;28;20220;-47
2023/01/19 13:10:58;;;;;;;24.25;9.57;;;3.90;99.90;;;;;;5072392;28;20174;-46